Time;durP1;ratioP1;P1;durP2;ratioP2;P2;SDS_P1;SDS_P2;PMS_P1;PMS_P2;Temp;Humidity;BMP_temperature;BMP_pressure;BME280_temperature;BME280_humidity;BME280_pressure;Samples;Min_cycle;Max_cycle;Signal;HPM_P1;HPM_P2
2023/01/18 00:01:38;;;;;;;8.03;4.63;;;;;;;;;;5015063;28;20216;-61
2023/01/18 00:04:03;;;;;;;7.33;4.63;;;;;;;;;;5014967;28;20223;-60
2023/01/18 00:06:29;;;;;;;7.73;4.53;;;;;;;;;;5013748;28;20232;-61
2023/01/18 00:08:54;;;;;;;5.93;4.23;;;;;;;;;;5014996;28;20217;-60
2023/01/18 00:11:19;;;;;;;8.27;4.73;;;;;;;;;;5015009;28;20224;-61
2023/01/18 00:13:46;;;;;;;7.23;4.63;;;;;;;;;;5014599;28;20223;-60
2023/01/18 00:16:12;;;;;;;6.87;4.83;;;;;;;;;;5015006;28;20221;-60
2023/01/18 00:18:37;;;;;;;7.17;4.93;;;;;;;;;;5015354;28;20212;-60
2023/01/18 00:21:03;;;;;;;7.93;4.97;;;;;;;;;;4996596;28;20271;-61
2023/01/18 00:23:29;;;;;;;6.63;4.73;;;;;;;;;;5015305;28;20213;-60
2023/01/18 00:25:58;;;;;;;7.40;4.60;;;;;;;;;;5015427;28;20684;-60
2023/01/18 00:28:23;;;;;;;7.20;4.27;;;;;;;;;;5013886;28;20628;-61
2023/01/18 00:30:48;;;;;;;7.20;4.90;;;;;;;;;;5015404;28;20228;-60
2023/01/18 00:33:14;;;;;;;8.90;5.20;;;;;;;;;;5014604;28;20214;-61
2023/01/18 00:35:39;;;;;;;7.40;4.70;;;;;;;;;;5014245;28;20571;-60
2023/01/18 00:38:05;;;;;;;6.83;4.87;;;;;;;;;;4996700;28;20208;-61
2023/01/18 00:40:30;;;;;;;7.83;4.53;;;;;;;;;;5013936;28;20664;-60
2023/01/18 00:45:40;;;;;;;6.60;4.43;;;;;;;;;;4975093;28;20228;-60
2023/01/18 00:48:06;;;;;;;7.20;5.10;;;;;;;;;;4977086;28;20217;-61
2023/01/18 00:50:31;;;;;;;6.50;4.87;;;;;;;;;;4982535;28;20220;-60
2023/01/18 00:52:57;;;;;;;7.37;5.03;;;;;;;;;;4985500;28;20244;-60
2023/01/18 00:55:22;;;;;;;7.70;5.10;;;;;;;;;;4984942;28;20240;-60
2023/01/18 00:57:47;;;;;;;8.63;5.20;;;;;;;;;;4984716;28;20638;-61
2023/01/18 01:00:15;;;;;;;7.70;5.27;;;;;;;;;;4984948;28;20588;-60
2023/01/18 01:02:41;;;;;;;7.60;5.10;;;;;;;;;;4980758;28;20221;-60
2023/01/18 01:07:53;;;;;;;11.20;5.90;;;;;;;;;;4977933;28;20273;-60
2023/01/18 01:10:19;;;;;;;9.80;4.80;;;;;;;;;;4975613;28;20209;-61
2023/01/18 01:26:22;;;;;;;8.83;5.47;;;;;;;;;;5022540;28;20226;-61
2023/01/18 01:28:49;;;;;;;8.23;5.10;;;;;;;;;;5018192;28;20215;-60
2023/01/18 01:31:15;;;;;;;8.30;5.53;;;;;;;;;;5014582;28;20216;-61
2023/01/18 01:33:40;;;;;;;8.80;5.70;;;;;;;;;;5015448;28;20311;-60
2023/01/18 01:36:06;;;;;;;8.17;5.47;;;;;;;;;;5021505;28;20223;-61
2023/01/18 01:38:32;;;;;;;9.70;5.57;;;;;;;;;;5022618;28;20207;-60
2023/01/18 01:41:01;;;;;;;8.20;5.20;;;;;;;;;;5019291;28;20212;-60
2023/01/18 01:43:37;;;;;;;9.03;5.30;;;;;;;;;;5025360;28;20220;-60
2023/01/18 01:46:03;;;;;;;9.27;5.70;;;;;;;;;;5028057;28;20227;-61
2023/01/18 01:48:28;;;;;;;8.00;5.20;;;;;;;;;;5016011;28;20204;-60
2023/01/18 01:50:54;;;;;;;9.10;5.17;;;;;;;;;;5025287;28;20231;-60
2023/01/18 01:53:19;;;;;;;9.40;5.90;;;;;;;;;;5013324;28;20729;-60
2023/01/18 01:55:45;;;;;;;9.20;5.70;;;;;;;;;;5013793;28;20219;-61
2023/01/18 01:58:12;;;;;;;9.20;6.13;;;;;;;;;;4995760;28;20242;-61
2023/01/18 02:00:37;;;;;;;8.17;5.87;;;;;;;;;;5011558;28;20594;-61
2023/01/18 02:03:03;;;;;;;9.83;5.63;;;;;;;;;;5011881;28;20294;-61
2023/01/18 02:05:28;;;;;;;7.93;5.73;;;;;;;;;;5012706;28;20261;-60
2023/01/18 02:07:54;;;;;;;8.43;5.53;;;;;;;;;;4996267;28;20298;-60
2023/01/18 02:10:20;;;;;;;7.83;5.47;;;;;;;;;;4976006;28;20680;-61
2023/01/18 02:12:46;;;;;;;8.83;5.00;;;;;;;;;;4993885;28;20259;-60
2023/01/18 02:15:11;;;;;;;8.30;5.27;;;;;;;;;;4975085;28;20300;-61
2023/01/18 02:17:38;;;;;;;6.93;5.13;;;;;;;;;;4993683;28;20740;-60
2023/01/18 02:20:23;;;;;;;9.20;5.77;;;;;;;;;;5001510;28;20220;-61
2023/01/18 02:22:55;;;;;;;9.23;5.23;;;;;;;;;;5013058;28;20372;-60
2023/01/18 02:25:35;;;;;;;7.17;4.97;;;;;;;;;;5012777;28;22152;-60
2023/01/18 02:28:04;;;;;;;7.80;5.10;;;;;;;;;;4986417;28;20231;-62
2023/01/18 02:30:31;;;;;;;7.20;5.37;;;;;;;;;;5012803;28;20295;-60
2023/01/18 02:33:05;;;;;;;7.70;5.57;;;;;;;;;;5012944;28;20748;-61
2023/01/18 02:35:33;;;;;;;6.93;5.33;;;;;;;;;;4994480;28;20211;-60
2023/01/18 02:38:05;;;;;;;8.43;5.43;;;;;;;;;;5012754;28;20584;-60
2023/01/18 02:40:33;;;;;;;8.70;5.73;;;;;;;;;;4995105;28;20231;-60
2023/01/18 02:48:30;;;;;;;8.40;5.70;;;;;;;;;;4985479;28;20259;-60
2023/01/18 02:50:55;;;;;;;9.63;5.97;;;;;;;;;;4971134;28;20221;-60
2023/01/18 02:53:21;;;;;;;8.60;5.90;;;;;;;;;;4982319;28;20278;-60
2023/01/18 02:55:49;;;;;;;7.47;5.53;;;;;;;;;;4981684;28;20730;-61
2023/01/18 02:58:17;;;;;;;7.70;5.90;;;;;;;;;;4980926;28;20212;-60
2023/01/18 03:00:44;;;;;;;7.80;5.03;;;;;;;;;;4981602;28;20253;-60
2023/01/18 03:03:10;;;;;;;7.93;5.00;;;;;;;;;;4992784;28;20232;-61
2023/01/18 03:05:35;;;;;;;7.43;5.23;;;;;;;;;;4996174;28;20234;-61
2023/01/18 03:08:05;;;;;;;6.50;5.17;;;;;;;;;;5017522;28;20283;-61
2023/01/18 03:10:30;;;;;;;8.53;5.10;;;;;;;;;;5020272;28;20290;-61
2023/01/18 03:12:56;;;;;;;7.30;5.50;;;;;;;;;;5021966;28;20212;-61
2023/01/18 03:15:23;;;;;;;9.37;5.40;;;;;;;;;;5021420;28;20217;-60
2023/01/18 03:17:50;;;;;;;9.23;5.80;;;;;;;;;;5021413;28;20210;-60
2023/01/18 03:20:17;;;;;;;6.93;4.97;;;;;;;;;;5007970;28;20323;-60
2023/01/18 03:25:32;;;;;;;7.43;5.10;;;;;;;;;;5019285;28;20274;-60
2023/01/18 03:33:47;;;;;;;7.10;5.43;;;;;;;;;;5021490;28;20261;-61
2023/01/18 03:36:21;;;;;;;7.33;5.17;;;;;;;;;;5020440;28;20212;-61
2023/01/18 03:38:47;;;;;;;8.27;5.33;;;;;;;;;;5021389;28;20239;-60
2023/01/18 03:41:13;;;;;;;8.70;5.87;;;;;;;;;;5020019;28;20208;-60
2023/01/18 03:43:38;;;;;;;8.30;5.60;;;;;;;;;;5017166;28;20351;-60
2023/01/18 03:46:04;;;;;;;7.63;5.13;;;;;;;;;;5011289;28;20383;-60
2023/01/18 03:48:30;;;;;;;8.53;5.97;;;;;;;;;;5000447;28;20216;-60
2023/01/18 03:51:05;;;;;;;8.67;5.40;;;;;;;;;;5013232;28;20209;-60
2023/01/18 03:53:33;;;;;;;8.30;5.60;;;;;;;;;;5035757;28;20870;-60
2023/01/18 03:56:04;;;;;;;8.70;5.77;;;;;;;;;;5022034;28;20652;-60
2023/01/18 03:58:34;;;;;;;7.87;5.50;;;;;;;;;;5020511;28;20215;-61
2023/01/18 04:01:02;;;;;;;8.13;5.57;;;;;;;;;;5003688;28;20223;-61
2023/01/18 04:03:28;;;;;;;7.27;5.83;;;;;;;;;;5002116;28;20307;-60
2023/01/18 04:05:53;;;;;;;8.23;5.17;;;;;;;;;;4988234;28;20887;-60
2023/01/18 04:08:20;;;;;;;7.40;5.60;;;;;;;;;;4957211;28;20895;-61
2023/01/18 04:10:46;;;;;;;7.23;5.03;;;;;;;;;;4974751;28;20316;-60
2023/01/18 04:13:11;;;;;;;7.67;5.97;;;;;;;;;;4977230;28;20303;-60
2023/01/18 04:15:36;;;;;;;8.03;5.67;;;;;;;;;;4986541;28;20225;-61
2023/01/18 04:18:02;;;;;;;8.07;5.67;;;;;;;;;;4985287;28;20680;-61
2023/01/18 04:20:27;;;;;;;9.00;5.80;;;;;;;;;;4985496;28;20237;-61
2023/01/18 04:22:53;;;;;;;8.47;6.00;;;;;;;;;;4985823;28;20224;-61
2023/01/18 04:25:18;;;;;;;8.80;5.83;;;;;;;;;;5004250;28;20366;-61
2023/01/18 04:27:43;;;;;;;8.00;5.50;;;;;;;;;;5004293;28;20243;-61
2023/01/18 04:30:09;;;;;;;7.80;5.40;;;;;;;;;;4997245;28;20246;-61
2023/01/18 04:32:34;;;;;;;9.07;5.80;;;;;;;;;;4996940;28;20220;-61
2023/01/18 04:34:59;;;;;;;7.13;5.50;;;;;;;;;;4997033;28;20216;-60
2023/01/18 04:37:32;;;;;;;7.67;5.40;;;;;;;;;;5004039;28;20299;-61
2023/01/18 04:39:58;;;;;;;8.33;5.47;;;;;;;;;;5004992;28;20220;-61
2023/01/18 04:42:24;;;;;;;7.60;5.33;;;;;;;;;;4987449;28;20665;-61
2023/01/18 04:44:50;;;;;;;7.90;5.40;;;;;;;;;;4985883;28;20680;-61
2023/01/18 04:47:15;;;;;;;8.80;6.00;;;;;;;;;;4984773;28;20220;-61
2023/01/18 04:49:40;;;;;;;9.40;6.07;;;;;;;;;;4985001;28;20672;-61
2023/01/18 04:52:06;;;;;;;7.87;5.63;;;;;;;;;;4979522;28;20205;-61
2023/01/18 04:54:31;;;;;;;8.77;5.57;;;;;;;;;;4996529;28;20316;-61
2023/01/18 04:56:56;;;;;;;9.23;5.70;;;;;;;;;;4996115;28;20220;-60
2023/01/18 04:59:22;;;;;;;7.43;5.40;;;;;;;;;;4997601;28;20209;-61
2023/01/18 05:01:47;;;;;;;8.63;5.63;;;;;;;;;;4985513;28;20244;-61
2023/01/18 05:04:13;;;;;;;8.37;5.67;;;;;;;;;;4983973;28;20241;-60
2023/01/18 05:06:38;;;;;;;9.10;5.67;;;;;;;;;;4984634;28;20247;-61
2023/01/18 05:09:04;;;;;;;10.20;5.73;;;;;;;;;;5003511;28;20209;-61
2023/01/18 05:11:29;;;;;;;8.20;5.40;;;;;;;;;;5004330;28;20572;-60
2023/01/18 05:13:54;;;;;;;8.67;5.63;;;;;;;;;;5001268;28;20220;-61
2023/01/18 05:16:20;;;;;;;8.37;5.73;;;;;;;;;;4995950;28;20286;-61
2023/01/18 05:18:45;;;;;;;8.30;5.13;;;;;;;;;;4996422;28;20251;-61
2023/01/18 05:21:11;;;;;;;9.23;5.50;;;;;;;;;;4998166;28;20240;-61
2023/01/18 05:23:38;;;;;;;9.37;6.40;;;;;;;;;;5003885;28;20244;-61
2023/01/18 05:26:12;;;;;;;9.53;5.93;;;;;;;;;;5003640;28;20224;-61
2023/01/18 05:28:37;;;;;;;8.13;5.90;;;;;;;;;;5004369;28;20244;-61
2023/01/18 05:31:02;;;;;;;7.93;5.17;;;;;;;;;;5003242;28;20243;-61
2023/01/18 05:33:28;;;;;;;8.60;5.90;;;;;;;;;;5004205;28;20217;-61
2023/01/18 05:35:53;;;;;;;8.63;5.83;;;;;;;;;;5002774;28;20201;-61
2023/01/18 05:38:19;;;;;;;8.33;5.37;;;;;;;;;;4993487;28;20215;-61
2023/01/18 05:40:44;;;;;;;8.67;5.93;;;;;;;;;;4996319;28;20265;-61
2023/01/18 05:43:10;;;;;;;10.17;5.30;;;;;;;;;;4995583;28;20221;-61
2023/01/18 05:45:36;;;;;;;8.83;5.37;;;;;;;;;;5002638;28;20312;-61
2023/01/18 05:48:02;;;;;;;7.83;5.30;;;;;;;;;;5003136;28;20220;-61
2023/01/18 05:50:28;;;;;;;7.30;5.67;;;;;;;;;;5004713;28;20213;-61
2023/01/18 05:52:53;;;;;;;9.27;6.13;;;;;;;;;;4985693;28;20215;-60
2023/01/18 05:55:18;;;;;;;7.73;5.23;;;;;;;;;;5003639;28;20212;-61
2023/01/18 05:57:43;;;;;;;8.77;5.47;;;;;;;;;;5003704;28;20212;-61
2023/01/18 06:00:10;;;;;;;7.17;5.20;;;;;;;;;;4996212;28;20232;-61
2023/01/18 06:02:35;;;;;;;8.40;5.67;;;;;;;;;;4995514;28;20231;-61
2023/01/18 06:05:00;;;;;;;8.43;5.60;;;;;;;;;;4995188;28;20220;-62
2023/01/18 06:07:25;;;;;;;8.70;5.30;;;;;;;;;;5001710;28;20299;-61
2023/01/18 06:09:51;;;;;;;7.13;5.13;;;;;;;;;;5008934;28;20299;-61
2023/01/18 06:12:16;;;;;;;9.53;5.40;;;;;;;;;;5002342;28;20213;-61
2023/01/18 06:14:41;;;;;;;8.60;5.73;;;;;;;;;;4981967;28;20224;-61
2023/01/18 06:17:07;;;;;;;8.53;5.90;;;;;;;;;;4983354;28;20224;-61
2023/01/18 06:19:33;;;;;;;9.23;6.47;;;;;;;;;;4983124;28;20209;-61
2023/01/18 06:21:58;;;;;;;9.03;5.83;;;;;;;;;;4985191;28;20579;-61
2023/01/18 06:24:23;;;;;;;8.67;5.50;;;;;;;;;;4999389;28;20216;-61
2023/01/18 06:26:48;;;;;;;11.10;5.60;;;;;;;;;;4994559;28;20227;-61
2023/01/18 06:29:14;;;;;;;9.27;5.57;;;;;;;;;;4977498;28;20267;-61
2023/01/18 06:31:40;;;;;;;9.83;5.50;;;;;;;;;;4981160;28;20205;-61
2023/01/18 06:34:08;;;;;;;9.03;5.73;;;;;;;;;;4983631;28;20271;-60
2023/01/18 06:36:34;;;;;;;10.23;5.80;;;;;;;;;;4987945;28;20287;-60
2023/01/18 06:39:00;;;;;;;10.03;5.93;;;;;;;;;;4993285;28;20216;-59
2023/01/18 06:41:25;;;;;;;14.57;5.70;;;;;;;;;;5000200;28;20204;-61
2023/01/18 06:43:50;;;;;;;9.60;6.30;;;;;;;;;;5012285;28;20504;-60
2023/01/18 06:46:18;;;;;;;9.77;6.00;;;;;;;;;;5012427;28;20273;-62
2023/01/18 06:48:43;;;;;;;8.20;5.70;;;;;;;;;;5001534;28;20440;-60
2023/01/18 06:51:11;;;;;;;8.03;4.73;;;;;;;;;;4995065;28;20241;-61
2023/01/18 06:53:36;;;;;;;9.60;6.07;;;;;;;;;;5012743;28;20216;-60
2023/01/18 06:56:01;;;;;;;8.50;5.50;;;;;;;;;;5011604;28;20224;-60
2023/01/18 06:58:27;;;;;;;6.47;5.00;;;;;;;;;;5012579;28;20623;-60
2023/01/18 07:00:53;;;;;;;7.17;5.10;;;;;;;;;;5012923;28;20223;-60
2023/01/18 07:03:18;;;;;;;7.70;5.17;;;;;;;;;;4994015;28;20562;-60
2023/01/18 07:05:45;;;;;;;7.27;5.17;;;;;;;;;;5005387;28;20343;-60
2023/01/18 07:08:10;;;;;;;8.90;5.37;;;;;;;;;;5012157;28;20217;-60
2023/01/18 07:10:36;;;;;;;8.70;5.10;;;;;;;;;;5011918;28;20266;-60
2023/01/18 07:13:01;;;;;;;7.80;5.27;;;;;;;;;;5011487;28;20204;-61
2023/01/18 07:15:26;;;;;;;7.10;5.13;;;;;;;;;;5002527;28;20273;-61
2023/01/18 07:17:51;;;;;;;8.17;5.57;;;;;;;;;;5002330;28;20702;-61
2023/01/18 07:20:17;;;;;;;8.83;5.57;;;;;;;;;;5000638;28;20202;-61
2023/01/18 07:22:42;;;;;;;6.80;4.77;;;;;;;;;;5002349;28;20283;-61
2023/01/18 07:25:12;;;;;;;8.67;5.10;;;;;;;;;;5001613;28;20684;-61
2023/01/18 07:27:37;;;;;;;8.17;5.07;;;;;;;;;;5001065;28;20743;-60
2023/01/18 07:30:02;;;;;;;8.50;5.30;;;;;;;;;;5001563;28;20205;-61
2023/01/18 07:32:28;;;;;;;7.77;5.30;;;;;;;;;;5002206;28;20213;-60
2023/01/18 07:34:53;;;;;;;7.50;5.23;;;;;;;;;;5006422;28;20235;-62
2023/01/18 07:37:18;;;;;;;8.07;5.13;;;;;;;;;;5007457;28;20213;-62
2023/01/18 07:39:43;;;;;;;7.47;5.00;;;;;;;;;;5007596;28;20212;-62
2023/01/18 07:42:10;;;;;;;7.77;5.20;;;;;;;;;;5005730;28;20220;-63
2023/01/18 07:44:36;;;;;;;10.30;5.40;;;;;;;;;;5008039;28;20224;-62
2023/01/18 07:47:01;;;;;;;9.40;5.53;;;;;;;;;;5011818;28;20572;-62
2023/01/18 07:49:27;;;;;;;9.27;5.20;;;;;;;;;;4999606;28;20216;-62
2023/01/18 07:51:52;;;;;;;8.63;5.00;;;;;;;;;;5010602;28;20216;-62
2023/01/18 07:54:17;;;;;;;7.00;4.60;;;;;;;;;;5015320;28;20271;-62
2023/01/18 07:56:43;;;;;;;7.80;5.10;;;;;;;;;;5015860;28;20259;-62
2023/01/18 07:59:08;;;;;;;8.23;4.90;;;;;;;;;;5014450;28;20259;-62
2023/01/18 08:01:34;;;;;;;8.20;5.23;;;;;;;;;;5015881;28;20573;-62
2023/01/18 08:03:59;;;;;;;8.30;5.33;;;;;;;;;;5015463;28;20243;-62
2023/01/18 08:06:24;;;;;;;8.47;4.80;;;;;;;;;;5014167;28;20228;-62
2023/01/18 08:08:51;;;;;;;7.70;5.60;;;;;;;;;;4998353;28;20239;-62
2023/01/18 08:11:16;;;;;;;306.27;237.13;;;;;;;;;;5015335;28;20304;-63
2023/01/18 08:13:42;;;;;;;302.80;238.50;;;;;;;;;;5014851;28;20686;-62
2023/01/18 08:16:07;;;;;;;75.53;67.43;;;;;;;;;;5014968;28;20643;-62
2023/01/18 08:18:33;;;;;;;16.97;15.33;;;;;;;;;;5015761;28;20220;-62
2023/01/18 08:20:58;;;;;;;9.90;7.13;;;;;;;;;;5006911;28;20220;-62
2023/01/18 08:23:24;;;;;;;8.73;5.57;;;;;;;;;;4995188;28;20559;-61
2023/01/18 08:25:49;;;;;;;15.57;11.40;;;;;;;;;;4995795;28;20279;-62
2023/01/18 08:28:14;;;;;;;9.77;7.10;;;;;;;;;;4994512;28;20267;-62
2023/01/18 08:30:40;;;;;;;7.83;5.67;;;;;;;;;;4995549;28;20292;-62
2023/01/18 08:33:06;;;;;;;8.00;5.43;;;;;;;;;;4976865;28;20292;-62
2023/01/18 08:35:32;;;;;;;7.37;5.23;;;;;;;;;;4995409;28;20675;-62
2023/01/18 08:37:58;;;;;;;7.93;4.97;;;;;;;;;;4995420;28;20604;-61
2023/01/18 08:40:24;;;;;;;7.37;5.33;;;;;;;;;;4994500;28;20216;-62
2023/01/18 08:42:50;;;;;;;9.60;5.63;;;;;;;;;;5015159;28;20295;-62
2023/01/18 08:45:16;;;;;;;8.83;4.93;;;;;;;;;;5014420;28;20295;-62
2023/01/18 08:47:41;;;;;;;7.80;5.10;;;;;;;;;;5014505;28;20675;-62
2023/01/18 08:50:07;;;;;;;8.57;4.93;;;;;;;;;;4997096;28;20436;-62
2023/01/18 08:52:34;;;;;;;8.80;5.33;;;;;;;;;;5014781;28;20697;-62
2023/01/18 08:55:00;;;;;;;8.43;5.50;;;;;;;;;;5014146;28;20753;-61
2023/01/18 08:57:26;;;;;;;8.60;5.30;;;;;;;;;;5014491;28;20667;-61
2023/01/18 08:59:51;;;;;;;8.70;5.40;;;;;;;;;;5013904;28;20212;-61
2023/01/18 09:02:17;;;;;;;8.27;5.50;;;;;;;;;;5010051;28;20219;-61
2023/01/18 09:04:47;;;;;;;8.30;5.80;;;;;;;;;;5005708;28;20676;-61
2023/01/18 09:07:14;;;;;;;8.67;4.93;;;;;;;;;;5028379;28;20218;-61
2023/01/18 09:09:40;;;;;;;7.97;5.43;;;;;;;;;;5033479;28;20569;-61
2023/01/18 09:12:05;;;;;;;9.63;5.73;;;;;;;;;;5033671;28;20686;-61
2023/01/18 09:14:31;;;;;;;9.47;5.43;;;;;;;;;;4999800;28;20203;-61
2023/01/18 09:16:56;;;;;;;9.03;5.37;;;;;;;;;;5033329;28;20212;-62
2023/01/18 09:19:24;;;;;;;10.23;5.63;;;;;;;;;;5033320;28;20345;-62
2023/01/18 09:21:51;;;;;;;9.23;5.30;;;;;;;;;;5033944;28;20227;-62
2023/01/18 09:24:17;;;;;;;8.53;5.23;;;;;;;;;;5032160;28;20211;-62
2023/01/18 09:26:45;;;;;;;10.07;5.47;;;;;;;;;;5013724;28;20227;-61
2023/01/18 09:29:10;;;;;;;7.37;5.17;;;;;;;;;;4996758;28;20213;-62
2023/01/18 09:31:36;;;;;;;8.13;5.23;;;;;;;;;;5013106;28;20212;-61
2023/01/18 09:34:02;;;;;;;7.60;5.30;;;;;;;;;;5013237;28;20220;-61
2023/01/18 09:36:28;;;;;;;8.80;5.03;;;;;;;;;;5013112;28;20667;-62
2023/01/18 09:38:54;;;;;;;10.53;5.17;;;;;;;;;;5013820;28;20216;-62
2023/01/18 09:41:22;;;;;;;6.90;4.73;;;;;;;;;;5020533;28;20238;-61
2023/01/18 09:43:48;;;;;;;10.73;5.43;;;;;;;;;;5032702;28;20243;-62
2023/01/18 09:46:18;;;;;;;8.17;5.07;;;;;;;;;;5015088;28;20714;-62
2023/01/18 09:48:43;;;;;;;7.73;5.30;;;;;;;;;;5025005;28;20213;-62
2023/01/18 09:51:11;;;;;;;7.90;5.00;;;;;;;;;;5004271;28;20211;-62
2023/01/18 09:53:37;;;;;;;7.87;4.97;;;;;;;;;;5015643;28;20663;-62
2023/01/18 09:56:06;;;;;;;8.33;4.90;;;;;;;;;;5032588;28;20299;-62
2023/01/18 09:58:40;;;;;;;7.00;4.63;;;;;;;;;;5014730;28;20203;-62
2023/01/18 10:01:11;;;;;;;9.38;4.82;;;;;;;;;;5032889;28;20612;-62
2023/01/18 10:03:44;;;;;;;6.40;4.33;;;;;;;;;;5015150;28;20212;-62
2023/01/18 10:06:14;;;;;;;6.70;4.30;;;;;;;;;;5017886;28;20224;-62
2023/01/18 10:08:45;;;;;;;7.20;4.40;;;;;;;;;;5012028;28;20743;-62
2023/01/18 10:11:15;;;;;;;6.67;4.60;;;;;;;;;;5011201;28;20212;-62
2023/01/18 10:13:42;;;;;;;7.45;4.43;;;;;;;;;;5011493;28;20209;-63
2023/01/18 10:16:13;;;;;;;8.03;4.60;;;;;;;;;;5012990;28;20212;-63
2023/01/18 10:18:44;;;;;;;8.40;4.33;;;;;;;;;;5010996;28;20232;-63
2023/01/18 10:21:10;;;;;;;7.07;4.47;;;;;;;;;;5015176;28;20209;-63
2023/01/18 10:23:38;;;;;;;8.57;4.32;;;;;;;;;;5023313;28;20701;-62
2023/01/18 10:26:06;;;;;;;6.38;4.65;;;;;;;;;;5014008;28;20250;-63
2023/01/18 10:28:38;;;;;;;7.45;4.03;;;;;;;;;;5012073;28;20734;-61
2023/01/18 10:31:09;;;;;;;6.40;3.78;;;;;;;;;;5016903;28;20234;-62
2023/01/18 10:33:37;;;;;;;8.45;3.95;;;;;;;;;;5030433;28;20215;-63
2023/01/18 10:36:05;;;;;;;6.00;3.93;;;;;;;;;;5032345;28;20270;-63
2023/01/18 10:38:30;;;;;;;6.85;4.00;;;;;;;;;;5031446;28;20234;-63
2023/01/18 10:40:56;;;;;;;4.97;3.57;;;;;;;;;;5025303;28;20215;-63
2023/01/18 10:43:23;;;;;;;7.60;3.70;;;;;;;;;;5023849;28;20225;-64
2023/01/18 10:45:49;;;;;;;7.30;4.15;;;;;;;;;;5030002;28;20228;-64
2023/01/18 10:48:16;;;;;;;5.20;3.92;;;;;;;;;;5029988;28;20207;-64
2023/01/18 10:50:43;;;;;;;7.38;3.67;;;;;;;;;;5027603;28;20307;-64
2023/01/18 10:53:30;;;;;;;7.20;3.78;;;;;;;;;;5032128;28;20681;-64
2023/01/18 10:56:00;;;;;;;5.82;3.70;;;;;;;;;;5031762;28;20573;-64
2023/01/18 10:58:31;;;;;;;6.22;3.85;;;;;;;;;;5031110;28;20691;-64
2023/01/18 11:00:57;;;;;;;5.65;3.72;;;;;;;;;;5030539;28;20203;-64
2023/01/18 11:03:23;;;;;;;5.25;3.63;;;;;;;;;;5046854;28;20564;-64
2023/01/18 11:05:48;;;;;;;5.60;3.83;;;;;;;;;;5014303;28;20326;-64
2023/01/18 11:08:20;;;;;;;5.25;3.70;;;;;;;;;;4993853;28;20216;-64
2023/01/18 11:10:51;;;;;;;6.25;3.80;;;;;;;;;;5012496;28;20683;-64
2023/01/18 11:13:36;;;;;;;6.05;3.67;;;;;;;;;;4989169;28;20201;-64
2023/01/18 11:16:03;;;;;;;4.70;3.53;;;;;;;;;;4974210;28;20582;-64
2023/01/18 11:18:29;;;;;;;6.13;3.72;;;;;;;;;;4992301;28;20217;-64
2023/01/18 11:20:54;;;;;;;5.20;3.25;;;;;;;;;;4975412;28;20227;-65
2023/01/18 11:23:21;;;;;;;5.72;3.13;;;;;;;;;;4988423;28;20302;-65
2023/01/18 11:26:00;;;;;;;5.70;3.42;;;;;;;;;;4990489;28;20220;-64
2023/01/18 11:28:28;;;;;;;6.30;3.22;;;;;;;;;;5015870;28;20220;-64
2023/01/18 11:30:56;;;;;;;5.15;3.10;;;;;;;;;;5014457;28;20216;-64
2023/01/18 11:33:22;;;;;;;6.30;3.08;;;;;;;;;;5014272;28;20220;-64
2023/01/18 11:35:52;;;;;;;6.13;3.72;;;;;;;;;;5015155;28;20235;-64
2023/01/18 11:38:17;;;;;;;6.82;3.40;;;;;;;;;;5014218;28;20239;-64
2023/01/18 11:40:43;;;;;;;5.82;3.10;;;;;;;;;;5013416;28;20209;-64
2023/01/18 11:43:08;;;;;;;5.65;3.10;;;;;;;;;;4994128;28;20317;-64
2023/01/18 11:45:39;;;;;;;4.88;3.35;;;;;;;;;;4996610;28;20240;-64
2023/01/18 11:48:09;;;;;;;5.95;3.30;;;;;;;;;;4996825;28;20636;-64
2023/01/18 11:50:37;;;;;;;5.43;3.13;;;;;;;;;;5009138;28;20259;-64
2023/01/18 11:53:04;;;;;;;5.93;3.25;;;;;;;;;;4995974;28;20706;-64
2023/01/18 11:55:31;;;;;;;5.18;3.50;;;;;;;;;;4996402;28;20305;-64
2023/01/18 11:57:57;;;;;;;5.97;3.40;;;;;;;;;;4995683;28;20241;-64
2023/01/18 12:00:26;;;;;;;8.93;3.70;;;;;;;;;;4994633;28;20260;-64
2023/01/18 12:02:56;;;;;;;6.22;3.30;;;;;;;;;;4994564;28;20645;-64
2023/01/18 12:05:27;;;;;;;6.45;3.17;;;;;;;;;;5000917;28;20224;-64
2023/01/18 12:07:57;;;;;;;5.50;3.10;;;;;;;;;;5015728;28;20263;-65
2023/01/18 12:10:23;;;;;;;4.95;3.00;;;;;;;;;;4997620;28;20212;-64
2023/01/18 12:13:00;;;;;;;5.55;3.20;;;;;;;;;;5014444;28;20680;-65
2023/01/18 12:15:28;;;;;;;8.00;3.08;;;;;;;;;;4997491;28;20212;-64
2023/01/18 12:18:06;;;;;;;4.47;3.13;;;;;;;;;;5015222;28;20239;-64
2023/01/18 12:20:38;;;;;;;5.40;3.58;;;;;;;;;;5014924;28;20216;-64
2023/01/18 12:23:07;;;;;;;6.05;3.10;;;;;;;;;;4997396;28;20628;-64
2023/01/18 12:25:33;;;;;;;6.95;3.65;;;;;;;;;;5014457;28;20256;-64
2023/01/18 12:28:06;;;;;;;5.90;3.50;;;;;;;;;;5015099;28;20224;-64
2023/01/18 12:30:38;;;;;;;5.65;3.55;;;;;;;;;;5014833;28;20219;-64
2023/01/18 12:33:08;;;;;;;6.82;3.45;;;;;;;;;;4995916;28;20213;-64
2023/01/18 12:35:37;;;;;;;5.85;3.33;;;;;;;;;;5014933;28;20250;-64
2023/01/18 12:38:03;;;;;;;5.50;3.50;;;;;;;;;;4997267;28;20212;-63
2023/01/18 12:40:39;;;;;;;4.80;3.00;;;;;;;;;;5014896;28;20303;-64
2023/01/18 12:43:08;;;;;;;6.63;3.55;;;;;;;;;;5033030;28;20219;-63
2023/01/18 12:45:36;;;;;;;5.00;3.20;;;;;;;;;;5033459;28;20653;-64
2023/01/18 12:48:07;;;;;;;5.65;3.05;;;;;;;;;;5026887;28;20216;-63
2023/01/18 12:50:34;;;;;;;5.53;3.60;;;;;;;;;;5028627;28;20228;-64
2023/01/18 12:53:02;;;;;;;5.90;3.30;;;;;;;;;;4997349;28;20221;-64
2023/01/18 12:55:30;;;;;;;6.77;3.50;;;;;;;;;;4996339;28;20213;-64
2023/01/18 12:57:57;;;;;;;6.63;3.10;;;;;;;;;;5014720;28;20286;-64
2023/01/18 13:00:24;;;;;;;5.97;3.40;;;;;;;;;;4995880;28;20219;-64
2023/01/18 13:02:50;;;;;;;5.90;2.90;;;;;;;;;;5014137;28;20213;-64
2023/01/18 13:05:17;;;;;;;5.83;2.70;;;;;;;;;;5013213;28;20259;-64
2023/01/18 13:07:44;;;;;;;4.22;2.65;;;;;;;;;;5009243;28;20231;-65
2023/01/18 13:10:20;;;;;;;5.77;2.80;;;;;;;;;;5013017;28;20220;-64
2023/01/18 13:12:46;;;;;;;5.47;3.08;;;;;;;;;;5013230;28;20248;-65
2023/01/18 13:15:22;;;;;;;5.80;2.70;;;;;;;;;;5010350;28;20212;-64
2023/01/18 13:17:51;;;;;;;6.43;3.13;;;;;;;;;;4977168;28;20212;-65
2023/01/18 13:20:18;;;;;;;4.97;2.90;;;;;;;;;;4994352;28;20551;-64
2023/01/18 13:22:52;;;;;;;5.15;2.60;;;;;;;;;;4976301;28;20226;-64
2023/01/18 13:25:18;;;;;;;5.07;2.60;;;;;;;;;;4976874;28;20304;-64
2023/01/18 13:27:54;;;;;;;4.82;2.63;;;;;;;;;;4994639;28;20217;-65
2023/01/18 13:30:20;;;;;;;4.90;2.40;;;;;;;;;;4975663;28;20287;-64
2023/01/18 13:32:47;;;;;;;4.55;2.38;;;;;;;;;;4980056;28;20685;-65
2023/01/18 13:35:13;;;;;;;6.67;2.60;;;;;;;;;;4974603;28;20272;-64
2023/01/18 13:37:41;;;;;;;6.03;2.70;;;;;;;;;;4974358;28;20724;-65
2023/01/18 13:40:18;;;;;;;7.15;2.50;;;;;;;;;;4957322;28;20225;-64
2023/01/18 13:42:44;;;;;;;6.25;2.58;;;;;;;;;;4992741;28;20205;-64
2023/01/18 13:45:11;;;;;;;5.57;2.60;;;;;;;;;;4992629;28;20216;-64
2023/01/18 13:47:40;;;;;;;4.17;2.20;;;;;;;;;;4967392;28;20213;-64
2023/01/18 13:50:24;;;;;;;6.37;2.50;;;;;;;;;;4983009;28;20201;-64
2023/01/18 13:53:04;;;;;;;6.63;2.43;;;;;;;;;;4983248;28;20289;-64
2023/01/18 13:55:32;;;;;;;6.20;2.73;;;;;;;;;;4976501;28;20213;-65
2023/01/18 13:57:57;;;;;;;3.80;2.33;;;;;;;;;;4990350;28;20700;-65
2023/01/18 14:00:23;;;;;;;4.97;2.67;;;;;;;;;;4985585;28;20221;-65
2023/01/18 14:02:53;;;;;;;4.80;2.50;;;;;;;;;;4993567;28;20573;-65
2023/01/18 14:05:21;;;;;;;7.90;2.70;;;;;;;;;;4983305;28;20710;-64
2023/01/18 14:07:47;;;;;;;5.17;2.43;;;;;;;;;;4998344;28;20217;-64
2023/01/18 14:10:22;;;;;;;4.63;2.57;;;;;;;;;;4992273;28;20615;-64
2023/01/18 14:12:48;;;;;;;4.07;2.53;;;;;;;;;;4992115;28;20212;-67
2023/01/18 14:15:27;;;;;;;5.27;2.40;;;;;;;;;;4992089;28;20585;-64
2023/01/18 14:17:53;;;;;;;3.80;2.50;;;;;;;;;;4992820;28;20244;-64
2023/01/18 14:20:38;;;;;;;4.97;2.30;;;;;;;;;;4993335;28;20251;-64
2023/01/18 14:23:05;;;;;;;5.70;2.37;;;;;;;;;;4993242;28;20261;-64
2023/01/18 14:25:30;;;;;;;5.63;2.60;;;;;;;;;;4991723;28;20219;-64
2023/01/18 14:28:11;;;;;;;6.60;2.70;;;;;;;;;;4993716;28;20213;-65
2023/01/18 14:30:36;;;;;;;4.60;2.50;;;;;;;;;;5012802;28;20614;-64
2023/01/18 14:33:07;;;;;;;4.87;2.57;;;;;;;;;;5010541;28;20706;-64
2023/01/18 14:35:32;;;;;;;4.63;2.40;;;;;;;;;;5011925;28;20218;-64
2023/01/18 14:38:05;;;;;;;4.93;2.40;;;;;;;;;;5013220;28;20304;-64
2023/01/18 14:40:30;;;;;;;4.10;2.30;;;;;;;;;;5012117;28;20554;-64
2023/01/18 14:42:58;;;;;;;4.87;2.30;;;;;;;;;;5011904;28;20212;-64
2023/01/18 14:45:25;;;;;;;4.43;2.30;;;;;;;;;;5011890;28;20215;-64
2023/01/18 14:47:51;;;;;;;6.23;2.10;;;;;;;;;;5012573;28;20581;-65
2023/01/18 14:50:16;;;;;;;3.13;2.07;;;;;;;;;;5012387;28;20707;-66
2023/01/18 14:52:42;;;;;;;5.20;2.63;;;;;;;;;;5026574;28;20212;-65
2023/01/18 14:55:19;;;;;;;4.57;2.00;;;;;;;;;;5029707;28;20714;-65
2023/01/18 14:57:49;;;;;;;4.80;2.10;;;;;;;;;;5022158;28;20208;-65
2023/01/18 15:00:15;;;;;;;4.60;2.20;;;;;;;;;;5006151;28;20295;-65
2023/01/18 15:02:40;;;;;;;3.47;1.80;;;;;;;;;;5009044;28;20296;-65
2023/01/18 15:05:12;;;;;;;3.93;2.00;;;;;;;;;;5016425;28;20244;-64
2023/01/18 15:07:39;;;;;;;4.10;2.03;;;;;;;;;;5003613;28;20347;-64
2023/01/18 15:10:05;;;;;;;4.80;2.17;;;;;;;;;;4988325;28;20314;-64
2023/01/18 15:12:31;;;;;;;5.07;1.80;;;;;;;;;;5006335;28;20232;-65
2023/01/18 15:14:57;;;;;;;5.23;2.10;;;;;;;;;;4987735;28;20688;-65
2023/01/18 15:17:23;;;;;;;4.23;2.10;;;;;;;;;;4987851;28;20220;-65